Airfield :
LOGIN :

Register | Disclaimer

   EN    FR    IT 

 










Legend :    VFR   Marginal VFR   IFR   Intensive IFR   Very Intensive IFR
Visi :
Ceiling :
>= 8 km
>= 3000ft
5 to 8 km
1000 to 3000 ft
1500m to 5 km
500 to 1000 ft
800 to 1500m
200 to 500 ft
< 800m
< 200 ft
Symbols :   Thunderstorms  Fog  Heavy snow  Heavy precipitations  Wind > 20 kt
SIGMETs :     Misc.  Thunderstorms  Icing  Turbulence  Mountain Waves  Volcanic Ashes







- Airport Elevation : 36 ft
- IATA code : LTQ
- Download approach charts


LFAT - Le Touquet

CURRENT METAR :
  • 182100Z AUTO 35008KT 9999 -RA OVC016 09/08 Q1020

EXPIRED METARs :
  • 182030Z AUTO 35008KT 9999 -RA FEW004 OVC015 08/08 Q1019
  • 182000Z AUTO 35007KT 340V040 7000 -RA FEW006/// BKN011/// BKN025/// ///TCU 09/08 Q1019
  • 181930Z AUTO 33015KT 290V030 4200 -RA BR BKN008/// OVC013/// ///TCU 10/10 Q1019
  • 181900Z AUTO 31014G24KT 5000 -RA BR BKN005/// BKN009/// OVC021/// ///TCU 11/11 Q1019
  • 181830Z AUTO 31013KT 3200 RA BR BKN004/// BKN009/// OVC018/// ///CB 11/11 Q1019

TAF AMD TAF LFAT
Valid from the 18 at 15:00 until the 19 at 00:00 UTC


181452Z 1815/1824 27010KT 4000 RA OVC013
TEMPO 1815/1820 30015G25KT 2000 BKN005 OVC013TCU
BECMG 1820/1822 35010KT 9999 NSW
BECMG 1822/1824 SCT030
ATIS : +33 3 21 06 62 84
No reported NOTAMs for that airfield.
1 SIGMET reported for the Paris FIR (LFFF) :
 
Severe icing
LFFF SIGMET 1 VALID 182100/190100 LFPW
LFFF PARIS FIR/UIR SEV ICE OBS WI N5045 E00315 - N4930 E00600 - N4915 E00515 - N5000 E00300 FL080/220 MOV SE 20KT NC=



MET'MAP, your aeronautical weather chart ! - Copyright ORBIFLY December 2007 - Disclaimer

ORBIFLY MET'MAP TEAM :

Programming & Development : Alexandra Zaïnal
Concept & Development : Baudouin d'Aumeries
Co-Development & Prog : Marc-Olivier Méhu
Technical & hardware support : Manuel Goepfert

Contact : metmap@orbifly.com




SOURCES & CREDITS :

   NOAA